Grand Cane, Louisiana
Current Conditions -  °F | °C
As of 1:56 AM on Thursday 27 Nov 2014 (Local Time) from KSHV Reporting Station
Clear Clear  
Wind Chill: 42°   Ceiling: Unl
Heat Index: 47°   Visibility: 10mi
Dew Point: 33°   Wind: 10mph
Humidity: 59%   Direction: 330°NNW
Pressure: 30.37"   Gusts: NA
Location:  32.08°N, 93.81°W
Report Text: KSHV 270756Z 33009KT 10SM CLR 08/01 A3037 RMK AO2 SLP283 T00830006
Loading
Personal Weather Stations






























Interactive Weather Map New forecast layout! Learn more

10-Day Weather Forecast

Advertisements
Track Severe Weather on mobile